Terminal Aerodrome Forecast
Issued by NWS Wilmington, OH

Current Version | Previous Version | Graphics & Text | Print | Product List | Glossary On
Versions: 1 2 3 4 5 6 7 8 9 10 11 12 13
123
FTUS41 KILN 201125
TAFCMH
TAF
KCMH 201125Z 2012/2112 00000KT P6SM SCT250
     FM201400 16004KT P6SM FEW250
     FM210000 00000KT P6SM SCT250=

USA.gov is the U.S. government's official web portal to all federal, state and local government web resources and services.